sensor_id;sensor_type;location;lat;lon;timestamp;P1;durP1;ratioP1;P2;durP2;ratioP2
76826;SDS011;65788;52.284;20.890;2023-04-24T00:01:34;6.80;;;4.50;;
76826;SDS011;65788;52.284;20.890;2023-04-24T00:04:03;6.20;;;4.30;;
76826;SDS011;65788;52.284;20.890;2023-04-24T00:06:30;5.90;;;4.40;;
76826;SDS011;65788;52.284;20.890;2023-04-24T00:09:00;6.10;;;4.30;;
76826;SDS011;65788;52.284;20.890;2023-04-24T00:11:27;6.70;;;4.40;;
76826;SDS011;65788;52.284;20.890;2023-04-24T00:13:55;6.10;;;4.50;;
76826;SDS011;65788;52.284;20.890;2023-04-24T00:16:23;7.90;;;4.60;;
76826;SDS011;65788;52.284;20.890;2023-04-24T00:18:53;6.20;;;4.40;;
76826;SDS011;65788;52.284;20.890;2023-04-24T00:21:20;5.70;;;4.00;;
76826;SDS011;65788;52.284;20.890;2023-04-24T00:23:48;5.70;;;4.30;;
76826;SDS011;65788;52.284;20.890;2023-04-24T00:26:15;6.40;;;4.60;;
76826;SDS011;65788;52.284;20.890;2023-04-24T00:28:42;7.60;;;4.80;;
76826;SDS011;65788;52.284;20.890;2023-04-24T00:31:09;7.60;;;4.50;;
76826;SDS011;65788;52.284;20.890;2023-04-24T00:33:36;7.10;;;4.70;;
76826;SDS011;65788;52.284;20.890;2023-04-24T00:36:03;7.50;;;4.70;;
76826;SDS011;65788;52.284;20.890;2023-04-24T00:38:30;6.20;;;4.40;;
76826;SDS011;65788;52.284;20.890;2023-04-24T00:40:58;5.80;;;4.60;;
76826;SDS011;65788;52.284;20.890;2023-04-24T00:43:26;6.20;;;4.30;;
76826;SDS011;65788;52.284;20.890;2023-04-24T00:45:53;6.10;;;4.10;;
76826;SDS011;65788;52.284;20.890;2023-04-24T00:48:21;7.10;;;4.20;;
76826;SDS011;65788;52.284;20.890;2023-04-24T00:50:48;5.80;;;4.80;;
76826;SDS011;65788;52.284;20.890;2023-04-24T00:53:15;6.20;;;4.20;;
76826;SDS011;65788;52.284;20.890;2023-04-24T00:55:44;6.60;;;4.70;;
76826;SDS011;65788;52.284;20.890;2023-04-24T00:58:11;6.40;;;4.40;;
76826;SDS011;65788;52.284;20.890;2023-04-24T01:00:40;7.10;;;5.00;;
76826;SDS011;65788;52.284;20.890;2023-04-24T01:03:07;6.50;;;4.50;;
76826;SDS011;65788;52.284;20.890;2023-04-24T01:05:35;5.70;;;4.30;;
76826;SDS011;65788;52.284;20.890;2023-04-24T01:08:05;5.30;;;4.30;;
76826;SDS011;65788;52.284;20.890;2023-04-24T01:10:33;6.70;;;4.60;;
76826;SDS011;65788;52.284;20.890;2023-04-24T01:13:03;6.50;;;4.70;;
76826;SDS011;65788;52.284;20.890;2023-04-24T01:15:30;6.20;;;4.30;;
76826;SDS011;65788;52.284;20.890;2023-04-24T01:17:59;7.00;;;5.00;;
76826;SDS011;65788;52.284;20.890;2023-04-24T01:20:26;6.70;;;4.70;;
76826;SDS011;65788;52.284;20.890;2023-04-24T01:22:54;6.40;;;4.60;;
76826;SDS011;65788;52.284;20.890;2023-04-24T01:25:21;6.10;;;4.50;;
76826;SDS011;65788;52.284;20.890;2023-04-24T01:27:49;7.50;;;4.80;;
76826;SDS011;65788;52.284;20.890;2023-04-24T01:30:19;6.60;;;4.80;;
76826;SDS011;65788;52.284;20.890;2023-04-24T01:32:46;5.80;;;4.40;;
76826;SDS011;65788;52.284;20.890;2023-04-24T01:35:13;5.90;;;4.90;;
76826;SDS011;65788;52.284;20.890;2023-04-24T01:37:40;6.40;;;4.90;;
76826;SDS011;65788;52.284;20.890;2023-04-24T01:40:08;6.70;;;5.20;;
76826;SDS011;65788;52.284;20.890;2023-04-24T01:42:37;6.60;;;4.80;;
76826;SDS011;65788;52.284;20.890;2023-04-24T01:45:04;6.00;;;4.60;;
76826;SDS011;65788;52.284;20.890;2023-04-24T01:47:32;6.20;;;4.80;;
76826;SDS011;65788;52.284;20.890;2023-04-24T01:50:00;5.30;;;4.50;;
76826;SDS011;65788;52.284;20.890;2023-04-24T01:52:27;7.70;;;5.00;;
76826;SDS011;65788;52.284;20.890;2023-04-24T01:54:59;5.80;;;4.60;;
76826;SDS011;65788;52.284;20.890;2023-04-24T01:57:26;7.30;;;5.00;;
76826;SDS011;65788;52.284;20.890;2023-04-24T01:59:53;6.20;;;4.70;;
76826;SDS011;65788;52.284;20.890;2023-04-24T02:02:20;7.00;;;5.00;;
76826;SDS011;65788;52.284;20.890;2023-04-24T02:04:50;6.40;;;5.10;;
76826;SDS011;65788;52.284;20.890;2023-04-24T02:07:17;6.00;;;4.70;;
76826;SDS011;65788;52.284;20.890;2023-04-24T02:09:44;7.40;;;4.70;;
76826;SDS011;65788;52.284;20.890;2023-04-24T02:12:10;7.00;;;5.20;;
76826;SDS011;65788;52.284;20.890;2023-04-24T02:14:37;6.80;;;4.60;;
76826;SDS011;65788;52.284;20.890;2023-04-24T02:17:04;7.40;;;4.80;;
76826;SDS011;65788;52.284;20.890;2023-04-24T02:19:31;7.40;;;5.30;;
76826;SDS011;65788;52.284;20.890;2023-04-24T02:21:59;6.30;;;4.80;;
76826;SDS011;65788;52.284;20.890;2023-04-24T02:24:28;7.80;;;5.40;;
76826;SDS011;65788;52.284;20.890;2023-04-24T02:26:55;7.20;;;5.30;;
76826;SDS011;65788;52.284;20.890;2023-04-24T02:29:23;5.90;;;4.60;;
76826;SDS011;65788;52.284;20.890;2023-04-24T02:31:50;5.50;;;4.50;;
76826;SDS011;65788;52.284;20.890;2023-04-24T02:34:19;7.60;;;5.20;;
76826;SDS011;65788;52.284;20.890;2023-04-24T02:36:47;8.60;;;5.20;;
76826;SDS011;65788;52.284;20.890;2023-04-24T02:39:14;6.30;;;5.00;;
76826;SDS011;65788;52.284;20.890;2023-04-24T02:41:43;6.30;;;5.30;;
76826;SDS011;65788;52.284;20.890;2023-04-24T02:44:10;6.60;;;4.90;;
76826;SDS011;65788;52.284;20.890;2023-04-24T02:46:37;7.40;;;5.10;;
76826;SDS011;65788;52.284;20.890;2023-04-24T02:49:04;6.00;;;4.90;;
76826;SDS011;65788;52.284;20.890;2023-04-24T02:51:31;7.90;;;4.80;;
76826;SDS011;65788;52.284;20.890;2023-04-24T02:53:58;6.80;;;5.10;;
76826;SDS011;65788;52.284;20.890;2023-04-24T02:56:27;5.70;;;4.50;;
76826;SDS011;65788;52.284;20.890;2023-04-24T02:58:54;7.60;;;5.10;;
76826;SDS011;65788;52.284;20.890;2023-04-24T03:01:21;5.40;;;4.50;;
76826;SDS011;65788;52.284;20.890;2023-04-24T03:03:48;6.80;;;5.40;;
76826;SDS011;65788;52.284;20.890;2023-04-24T03:06:18;6.00;;;4.80;;
76826;SDS011;65788;52.284;20.890;2023-04-24T03:08:44;6.20;;;5.10;;
76826;SDS011;65788;52.284;20.890;2023-04-24T03:11:11;7.00;;;5.40;;
76826;SDS011;65788;52.284;20.890;2023-04-24T03:13:38;5.90;;;5.00;;
76826;SDS011;65788;52.284;20.890;2023-04-24T03:16:05;6.40;;;4.90;;
76826;SDS011;65788;52.284;20.890;2023-04-24T03:18:32;11.50;;;6.50;;
76826;SDS011;65788;52.284;20.890;2023-04-24T03:20:59;9.00;;;5.20;;
76826;SDS011;65788;52.284;20.890;2023-04-24T03:23:26;6.50;;;5.20;;
76826;SDS011;65788;52.284;20.890;2023-04-24T03:25:52;8.80;;;5.10;;
76826;SDS011;65788;52.284;20.890;2023-04-24T03:28:21;7.60;;;5.60;;
76826;SDS011;65788;52.284;20.890;2023-04-24T03:30:48;6.70;;;5.00;;
76826;SDS011;65788;52.284;20.890;2023-04-24T03:33:15;6.50;;;5.10;;
76826;SDS011;65788;52.284;20.890;2023-04-24T03:35:42;7.90;;;5.20;;
76826;SDS011;65788;52.284;20.890;2023-04-24T03:38:09;8.50;;;5.00;;
76826;SDS011;65788;52.284;20.890;2023-04-24T03:40:37;8.40;;;5.40;;
76826;SDS011;65788;52.284;20.890;2023-04-24T03:43:04;8.00;;;5.10;;
76826;SDS011;65788;52.284;20.890;2023-04-24T03:45:30;7.50;;;4.90;;
76826;SDS011;65788;52.284;20.890;2023-04-24T03:47:57;10.30;;;5.40;;
76826;SDS011;65788;52.284;20.890;2023-04-24T03:50:24;9.00;;;5.50;;
76826;SDS011;65788;52.284;20.890;2023-04-24T03:52:52;8.40;;;5.20;;
76826;SDS011;65788;52.284;20.890;2023-04-24T03:55:19;7.40;;;4.80;;
76826;SDS011;65788;52.284;20.890;2023-04-24T03:57:47;7.00;;;5.30;;
76826;SDS011;65788;52.284;20.890;2023-04-24T04:00:14;7.40;;;5.10;;
76826;SDS011;65788;52.284;20.890;2023-04-24T04:02:42;8.30;;;5.60;;
76826;SDS011;65788;52.284;20.890;2023-04-24T04:05:08;7.00;;;5.30;;
76826;SDS011;65788;52.284;20.890;2023-04-24T04:07:35;8.50;;;5.10;;
76826;SDS011;65788;52.284;20.890;2023-04-24T04:10:02;7.30;;;5.30;;
76826;SDS011;65788;52.284;20.890;2023-04-24T04:12:30;7.40;;;5.00;;
76826;SDS011;65788;52.284;20.890;2023-04-24T04:14:57;7.10;;;4.60;;
76826;SDS011;65788;52.284;20.890;2023-04-24T04:17:24;6.60;;;5.20;;
76826;SDS011;65788;52.284;20.890;2023-04-24T04:19:51;7.40;;;5.60;;
76826;SDS011;65788;52.284;20.890;2023-04-24T04:22:17;7.30;;;5.60;;
76826;SDS011;65788;52.284;20.890;2023-04-24T04:24:44;8.00;;;5.10;;
76826;SDS011;65788;52.284;20.890;2023-04-24T04:27:13;8.10;;;6.10;;
76826;SDS011;65788;52.284;20.890;2023-04-24T04:29:40;7.30;;;5.50;;
76826;SDS011;65788;52.284;20.890;2023-04-24T04:32:07;8.50;;;5.80;;
76826;SDS011;65788;52.284;20.890;2023-04-24T04:34:33;8.80;;;6.20;;
76826;SDS011;65788;52.284;20.890;2023-04-24T04:37:00;8.30;;;5.90;;
76826;SDS011;65788;52.284;20.890;2023-04-24T04:39:28;8.60;;;5.80;;
76826;SDS011;65788;52.284;20.890;2023-04-24T04:41:59;8.80;;;6.10;;
76826;SDS011;65788;52.284;20.890;2023-04-24T04:44:27;7.30;;;5.50;;
76826;SDS011;65788;52.284;20.890;2023-04-24T04:46:54;8.70;;;5.30;;
76826;SDS011;65788;52.284;20.890;2023-04-24T04:49:22;9.90;;;5.70;;
76826;SDS011;65788;52.284;20.890;2023-04-24T04:51:50;8.40;;;6.20;;
76826;SDS011;65788;52.284;20.890;2023-04-24T04:54:17;7.40;;;5.40;;
76826;SDS011;65788;52.284;20.890;2023-04-24T04:56:45;8.00;;;5.90;;
76826;SDS011;65788;52.284;20.890;2023-04-24T04:59:12;8.20;;;5.70;;
76826;SDS011;65788;52.284;20.890;2023-04-24T05:01:39;7.30;;;5.90;;
76826;SDS011;65788;52.284;20.890;2023-04-24T05:04:06;9.60;;;6.30;;
76826;SDS011;65788;52.284;20.890;2023-04-24T05:06:34;8.10;;;6.00;;
76826;SDS011;65788;52.284;20.890;2023-04-24T05:09:01;7.50;;;5.40;;
76826;SDS011;65788;52.284;20.890;2023-04-24T05:11:27;7.10;;;5.60;;
76826;SDS011;65788;52.284;20.890;2023-04-24T05:13:54;7.30;;;5.40;;
76826;SDS011;65788;52.284;20.890;2023-04-24T05:16:21;7.50;;;6.20;;
76826;SDS011;65788;52.284;20.890;2023-04-24T05:18:48;7.40;;;5.80;;
76826;SDS011;65788;52.284;20.890;2023-04-24T05:21:15;7.00;;;5.50;;
76826;SDS011;65788;52.284;20.890;2023-04-24T05:23:42;7.60;;;5.90;;
76826;SDS011;65788;52.284;20.890;2023-04-24T05:26:13;7.50;;;5.50;;
76826;SDS011;65788;52.284;20.890;2023-04-24T05:28:40;7.00;;;5.50;;
76826;SDS011;65788;52.284;20.890;2023-04-24T05:31:07;8.00;;;5.90;;
76826;SDS011;65788;52.284;20.890;2023-04-24T05:33:34;8.70;;;5.50;;
76826;SDS011;65788;52.284;20.890;2023-04-24T05:36:01;8.90;;;5.40;;
76826;SDS011;65788;52.284;20.890;2023-04-24T05:38:28;8.20;;;5.70;;
76826;SDS011;65788;52.284;20.890;2023-04-24T05:40:55;6.70;;;5.30;;
76826;SDS011;65788;52.284;20.890;2023-04-24T05:43:22;9.10;;;5.60;;
76826;SDS011;65788;52.284;20.890;2023-04-24T05:45:49;6.70;;;5.60;;
76826;SDS011;65788;52.284;20.890;2023-04-24T05:48:16;8.30;;;5.60;;
76826;SDS011;65788;52.284;20.890;2023-04-24T05:50:43;7.70;;;5.20;;
76826;SDS011;65788;52.284;20.890;2023-04-24T05:53:09;7.80;;;5.60;;
76826;SDS011;65788;52.284;20.890;2023-04-24T05:55:37;7.80;;;6.20;;
76826;SDS011;65788;52.284;20.890;2023-04-24T05:58:04;9.80;;;5.60;;
76826;SDS011;65788;52.284;20.890;2023-04-24T06:00:31;6.60;;;5.70;;
76826;SDS011;65788;52.284;20.890;2023-04-24T06:03:00;7.00;;;5.40;;
76826;SDS011;65788;52.284;20.890;2023-04-24T06:05:27;8.50;;;7.00;;
76826;SDS011;65788;52.284;20.890;2023-04-24T06:07:54;7.30;;;5.50;;
76826;SDS011;65788;52.284;20.890;2023-04-24T06:10:21;7.10;;;5.60;;
76826;SDS011;65788;52.284;20.890;2023-04-24T06:12:48;7.40;;;5.60;;
76826;SDS011;65788;52.284;20.890;2023-04-24T06:15:15;6.20;;;5.10;;
76826;SDS011;65788;52.284;20.890;2023-04-24T06:17:42;9.20;;;5.00;;
76826;SDS011;65788;52.284;20.890;2023-04-24T06:20:09;7.70;;;5.80;;
76826;SDS011;65788;52.284;20.890;2023-04-24T06:22:38;7.20;;;5.40;;
76826;SDS011;65788;52.284;20.890;2023-04-24T06:25:07;7.80;;;5.40;;
76826;SDS011;65788;52.284;20.890;2023-04-24T06:27:34;7.70;;;5.40;;
76826;SDS011;65788;52.284;20.890;2023-04-24T06:30:02;6.80;;;5.60;;
76826;SDS011;65788;52.284;20.890;2023-04-24T06:32:29;9.20;;;6.10;;
76826;SDS011;65788;52.284;20.890;2023-04-24T06:34:57;6.50;;;5.30;;
76826;SDS011;65788;52.284;20.890;2023-04-24T06:37:24;7.60;;;6.10;;
76826;SDS011;65788;52.284;20.890;2023-04-24T06:39:51;9.80;;;5.50;;
76826;SDS011;65788;52.284;20.890;2023-04-24T06:42:18;9.40;;;5.80;;
76826;SDS011;65788;52.284;20.890;2023-04-24T06:44:47;8.00;;;5.70;;
76826;SDS011;65788;52.284;20.890;2023-04-24T06:47:14;8.40;;;6.00;;
76826;SDS011;65788;52.284;20.890;2023-04-24T06:49:42;10.80;;;6.50;;
76826;SDS011;65788;52.284;20.890;2023-04-24T06:52:08;8.00;;;6.30;;
76826;SDS011;65788;52.284;20.890;2023-04-24T06:54:36;8.20;;;6.10;;
76826;SDS011;65788;52.284;20.890;2023-04-24T06:57:03;8.40;;;5.80;;
76826;SDS011;65788;52.284;20.890;2023-04-24T06:59:30;7.80;;;6.10;;
76826;SDS011;65788;52.284;20.890;2023-04-24T07:01:57;10.40;;;7.10;;
76826;SDS011;65788;52.284;20.890;2023-04-24T07:04:24;13.50;;;7.90;;
76826;SDS011;65788;52.284;20.890;2023-04-24T07:06:51;19.00;;;8.40;;
76826;SDS011;65788;52.284;20.890;2023-04-24T07:09:21;10.80;;;7.90;;
76826;SDS011;65788;52.284;20.890;2023-04-24T07:11:50;15.10;;;8.20;;
76826;SDS011;65788;52.284;20.890;2023-04-24T07:14:18;14.90;;;8.20;;
76826;SDS011;65788;52.284;20.890;2023-04-24T07:16:45;13.50;;;8.00;;
76826;SDS011;65788;52.284;20.890;2023-04-24T07:19:14;13.60;;;8.20;;
76826;SDS011;65788;52.284;20.890;2023-04-24T07:21:42;19.00;;;8.40;;
76826;SDS011;65788;52.284;20.890;2023-04-24T07:24:08;14.30;;;8.30;;
76826;SDS011;65788;52.284;20.890;2023-04-24T07:26:37;15.50;;;7.50;;
76826;SDS011;65788;52.284;20.890;2023-04-24T07:31:32;12.30;;;7.50;;
76826;SDS011;65788;52.284;20.890;2023-04-24T07:33:59;14.30;;;7.70;;
76826;SDS011;65788;52.284;20.890;2023-04-24T07:36:26;14.60;;;7.80;;
76826;SDS011;65788;52.284;20.890;2023-04-24T07:38:54;14.60;;;8.50;;
76826;SDS011;65788;52.284;20.890;2023-04-24T07:41:23;14.30;;;8.00;;
76826;SDS011;65788;52.284;20.890;2023-04-24T07:43:50;13.50;;;7.40;;
76826;SDS011;65788;52.284;20.890;2023-04-24T07:46:18;18.80;;;8.60;;
76826;SDS011;65788;52.284;20.890;2023-04-24T07:48:48;16.00;;;8.20;;
76826;SDS011;65788;52.284;20.890;2023-04-24T07:51:15;12.20;;;8.20;;
76826;SDS011;65788;52.284;20.890;2023-04-24T07:53:42;12.50;;;7.40;;
76826;SDS011;65788;52.284;20.890;2023-04-24T07:56:10;14.50;;;8.10;;
76826;SDS011;65788;52.284;20.890;2023-04-24T07:58:37;13.80;;;8.10;;
76826;SDS011;65788;52.284;20.890;2023-04-24T08:01:04;14.60;;;7.90;;
76826;SDS011;65788;52.284;20.890;2023-04-24T08:03:31;12.20;;;7.70;;
76826;SDS011;65788;52.284;20.890;2023-04-24T08:05:58;15.20;;;7.50;;
76826;SDS011;65788;52.284;20.890;2023-04-24T08:08:25;13.50;;;7.40;;
76826;SDS011;65788;52.284;20.890;2023-04-24T08:10:52;10.70;;;7.40;;
76826;SDS011;65788;52.284;20.890;2023-04-24T08:13:21;13.90;;;7.20;;
76826;SDS011;65788;52.284;20.890;2023-04-24T08:15:48;14.20;;;7.40;;
76826;SDS011;65788;52.284;20.890;2023-04-24T08:18:16;13.50;;;7.00;;
76826;SDS011;65788;52.284;20.890;2023-04-24T08:20:43;11.40;;;7.00;;
76826;SDS011;65788;52.284;20.890;2023-04-24T08:23:11;12.30;;;7.30;;
76826;SDS011;65788;52.284;20.890;2023-04-24T08:25:38;9.80;;;6.70;;
76826;SDS011;65788;52.284;20.890;2023-04-24T08:28:06;12.20;;;6.70;;
76826;SDS011;65788;52.284;20.890;2023-04-24T08:30:35;10.30;;;6.80;;
76826;SDS011;65788;52.284;20.890;2023-04-24T08:33:02;12.40;;;7.20;;
76826;SDS011;65788;52.284;20.890;2023-04-24T08:35:28;10.30;;;6.80;;
76826;SDS011;65788;52.284;20.890;2023-04-24T08:37:56;11.40;;;7.20;;
76826;SDS011;65788;52.284;20.890;2023-04-24T08:40:26;13.10;;;7.10;;
76826;SDS011;65788;52.284;20.890;2023-04-24T08:42:57;10.80;;;6.80;;
76826;SDS011;65788;52.284;20.890;2023-04-24T08:45:27;8.50;;;6.20;;
76826;SDS011;65788;52.284;20.890;2023-04-24T08:47:54;9.50;;;6.40;;
76826;SDS011;65788;52.284;20.890;2023-04-24T08:50:24;9.90;;;6.50;;
76826;SDS011;65788;52.284;20.890;2023-04-24T08:52:51;10.50;;;5.80;;
76826;SDS011;65788;52.284;20.890;2023-04-24T08:55:23;11.40;;;6.80;;
76826;SDS011;65788;52.284;20.890;2023-04-24T08:57:52;11.20;;;6.70;;
76826;SDS011;65788;52.284;20.890;2023-04-24T09:02:48;11.70;;;6.20;;
76826;SDS011;65788;52.284;20.890;2023-04-24T09:05:17;10.40;;;6.40;;
76826;SDS011;65788;52.284;20.890;2023-04-24T09:07:46;10.80;;;7.00;;
76826;SDS011;65788;52.284;20.890;2023-04-24T09:10:20;9.70;;;6.50;;
76826;SDS011;65788;52.284;20.890;2023-04-24T09:12:49;9.70;;;6.30;;
76826;SDS011;65788;52.284;20.890;2023-04-24T09:15:20;10.10;;;7.10;;
76826;SDS011;65788;52.284;20.890;2023-04-24T09:17:48;13.90;;;7.10;;
76826;SDS011;65788;52.284;20.890;2023-04-24T09:20:16;10.20;;;6.70;;
76826;SDS011;65788;52.284;20.890;2023-04-24T09:22:43;9.20;;;6.60;;
76826;SDS011;65788;52.284;20.890;2023-04-24T09:25:14;9.60;;;6.90;;
76826;SDS011;65788;52.284;20.890;2023-04-24T09:27:41;11.20;;;6.70;;
76826;SDS011;65788;52.284;20.890;2023-04-24T09:30:11;10.10;;;6.30;;
76826;SDS011;65788;52.284;20.890;2023-04-24T09:32:38;11.80;;;7.00;;
76826;SDS011;65788;52.284;20.890;2023-04-24T09:35:07;10.40;;;6.60;;
76826;SDS011;65788;52.284;20.890;2023-04-24T09:37:41;8.90;;;6.50;;
76826;SDS011;65788;52.284;20.890;2023-04-24T09:40:20;11.30;;;7.00;;
76826;SDS011;65788;52.284;20.890;2023-04-24T09:42:52;11.30;;;6.10;;
76826;SDS011;65788;52.284;20.890;2023-04-24T09:45:22;9.80;;;7.00;;
76826;SDS011;65788;52.284;20.890;2023-04-24T09:47:54;9.00;;;6.20;;
76826;SDS011;65788;52.284;20.890;2023-04-24T09:50:22;10.70;;;6.70;;
76826;SDS011;65788;52.284;20.890;2023-04-24T09:52:59;11.10;;;6.80;;
76826;SDS011;65788;52.284;20.890;2023-04-24T09:55:28;10.00;;;6.20;;
76826;SDS011;65788;52.284;20.890;2023-04-24T09:58:00;10.70;;;6.50;;
76826;SDS011;65788;52.284;20.890;2023-04-24T10:00:28;8.50;;;6.30;;
76826;SDS011;65788;52.284;20.890;2023-04-24T10:02:57;11.50;;;6.30;;
76826;SDS011;65788;52.284;20.890;2023-04-24T10:05:34;9.40;;;7.00;;
76826;SDS011;65788;52.284;20.890;2023-04-24T10:08:05;8.50;;;5.90;;
76826;SDS011;65788;52.284;20.890;2023-04-24T10:10:34;8.60;;;6.20;;
76826;SDS011;65788;52.284;20.890;2023-04-24T10:13:05;10.90;;;6.40;;
76826;SDS011;65788;52.284;20.890;2023-04-24T10:15:34;9.70;;;6.30;;
76826;SDS011;65788;52.284;20.890;2023-04-24T10:18:01;9.60;;;6.20;;
76826;SDS011;65788;52.284;20.890;2023-04-24T10:20:32;9.40;;;6.00;;
76826;SDS011;65788;52.284;20.890;2023-04-24T10:23:00;7.80;;;5.70;;
76826;SDS011;65788;52.284;20.890;2023-04-24T10:25:28;9.40;;;6.10;;
76826;SDS011;65788;52.284;20.890;2023-04-24T10:27:57;9.40;;;6.40;;
76826;SDS011;65788;52.284;20.890;2023-04-24T10:30:27;7.50;;;5.70;;
76826;SDS011;65788;52.284;20.890;2023-04-24T10:32:55;8.80;;;6.60;;
76826;SDS011;65788;52.284;20.890;2023-04-24T10:35:23;11.90;;;6.30;;
76826;SDS011;65788;52.284;20.890;2023-04-24T10:38:00;8.80;;;5.80;;
76826;SDS011;65788;52.284;20.890;2023-04-24T10:40:33;9.90;;;5.80;;
76826;SDS011;65788;52.284;20.890;2023-04-24T10:43:04;9.70;;;6.40;;
76826;SDS011;65788;52.284;20.890;2023-04-24T10:45:34;7.60;;;5.30;;
76826;SDS011;65788;52.284;20.890;2023-04-24T10:48:02;9.00;;;6.20;;
76826;SDS011;65788;52.284;20.890;2023-04-24T10:50:45;7.80;;;5.40;;
76826;SDS011;65788;52.284;20.890;2023-04-24T10:53:20;7.00;;;5.30;;
76826;SDS011;65788;52.284;20.890;2023-04-24T10:56:03;8.40;;;5.20;;
76826;SDS011;65788;52.284;20.890;2023-04-24T10:58:40;7.10;;;5.20;;
76826;SDS011;65788;52.284;20.890;2023-04-24T11:01:30;7.90;;;5.90;;
76826;SDS011;65788;52.284;20.890;2023-04-24T11:04:00;7.90;;;5.30;;
76826;SDS011;65788;52.284;20.890;2023-04-24T11:06:32;9.60;;;5.50;;
76826;SDS011;65788;52.284;20.890;2023-04-24T11:09:06;7.00;;;5.10;;
76826;SDS011;65788;52.284;20.890;2023-04-24T11:11:35;7.60;;;5.30;;
76826;SDS011;65788;52.284;20.890;2023-04-24T11:14:04;6.40;;;4.90;;
76826;SDS011;65788;52.284;20.890;2023-04-24T11:19:09;6.50;;;5.10;;
76826;SDS011;65788;52.284;20.890;2023-04-24T11:21:40;9.30;;;5.20;;
76826;SDS011;65788;52.284;20.890;2023-04-24T11:24:49;6.70;;;5.40;;
76826;SDS011;65788;52.284;20.890;2023-04-24T11:27:18;6.30;;;5.10;;
76826;SDS011;65788;52.284;20.890;2023-04-24T11:30:08;6.30;;;4.70;;
76826;SDS011;65788;52.284;20.890;2023-04-24T11:32:39;7.80;;;4.40;;
76826;SDS011;65788;52.284;20.890;2023-04-24T11:37:48;7.40;;;4.90;;
76826;SDS011;65788;52.284;20.890;2023-04-24T11:40:17;7.10;;;4.70;;
76826;SDS011;65788;52.284;20.890;2023-04-24T11:42:50;5.80;;;4.30;;
76826;SDS011;65788;52.284;20.890;2023-04-24T11:45:20;6.80;;;5.00;;
76826;SDS011;65788;52.284;20.890;2023-04-24T11:47:49;6.90;;;4.80;;
76826;SDS011;65788;52.284;20.890;2023-04-24T11:50:17;7.30;;;4.90;;
76826;SDS011;65788;52.284;20.890;2023-04-24T11:52:46;5.80;;;4.50;;
76826;SDS011;65788;52.284;20.890;2023-04-24T12:00:16;5.40;;;4.20;;
76826;SDS011;65788;52.284;20.890;2023-04-24T12:02:43;6.80;;;4.60;;
76826;SDS011;65788;52.284;20.890;2023-04-24T12:05:23;7.10;;;4.20;;
76826;SDS011;65788;52.284;20.890;2023-04-24T12:07:54;6.50;;;5.00;;
76826;SDS011;65788;52.284;20.890;2023-04-24T12:10:22;6.20;;;4.60;;
76826;SDS011;65788;52.284;20.890;2023-04-24T12:12:51;7.00;;;4.70;;
76826;SDS011;65788;52.284;20.890;2023-04-24T12:15:19;5.00;;;4.10;;
76826;SDS011;65788;52.284;20.890;2023-04-24T12:17:47;6.00;;;4.60;;
76826;SDS011;65788;52.284;20.890;2023-04-24T12:20:17;6.70;;;4.50;;
76826;SDS011;65788;52.284;20.890;2023-04-24T12:22:53;5.70;;;4.10;;
76826;SDS011;65788;52.284;20.890;2023-04-24T12:25:22;5.30;;;4.30;;
76826;SDS011;65788;52.284;20.890;2023-04-24T12:27:54;5.50;;;4.10;;
76826;SDS011;65788;52.284;20.890;2023-04-24T12:30:44;5.30;;;4.20;;
76826;SDS011;65788;52.284;20.890;2023-04-24T12:33:21;5.80;;;4.00;;
76826;SDS011;65788;52.284;20.890;2023-04-24T12:35:50;5.80;;;4.20;;
76826;SDS011;65788;52.284;20.890;2023-04-24T12:38:23;7.80;;;4.40;;
76826;SDS011;65788;52.284;20.890;2023-04-24T12:41:04;5.70;;;4.30;;
76826;SDS011;65788;52.284;20.890;2023-04-24T12:43:35;4.70;;;3.70;;
76826;SDS011;65788;52.284;20.890;2023-04-24T12:46:03;8.00;;;4.40;;
76826;SDS011;65788;52.284;20.890;2023-04-24T12:48:31;6.30;;;4.60;;
76826;SDS011;65788;52.284;20.890;2023-04-24T12:50:58;4.90;;;4.00;;
76826;SDS011;65788;52.284;20.890;2023-04-24T12:53:28;5.40;;;3.90;;
76826;SDS011;65788;52.284;20.890;2023-04-24T12:55:56;5.70;;;4.40;;
76826;SDS011;65788;52.284;20.890;2023-04-24T12:58:23;7.90;;;4.10;;
76826;SDS011;65788;52.284;20.890;2023-04-24T13:00:51;5.90;;;4.10;;
76826;SDS011;65788;52.284;20.890;2023-04-24T13:03:18;6.90;;;4.50;;
76826;SDS011;65788;52.284;20.890;2023-04-24T13:05:45;6.00;;;4.00;;
76826;SDS011;65788;52.284;20.890;2023-04-24T13:08:12;4.90;;;3.80;;
76826;SDS011;65788;52.284;20.890;2023-04-24T13:10:39;5.70;;;4.30;;
76826;SDS011;65788;52.284;20.890;2023-04-24T13:13:07;8.60;;;4.00;;
76826;SDS011;65788;52.284;20.890;2023-04-24T13:15:35;5.40;;;4.10;;
76826;SDS011;65788;52.284;20.890;2023-04-24T13:18:02;7.50;;;3.90;;
76826;SDS011;65788;52.284;20.890;2023-04-24T13:20:29;8.80;;;4.20;;
76826;SDS011;65788;52.284;20.890;2023-04-24T13:22:56;8.70;;;3.90;;
76826;SDS011;65788;52.284;20.890;2023-04-24T13:25:23;5.50;;;3.60;;
76826;SDS011;65788;52.284;20.890;2023-04-24T13:27:50;9.40;;;4.00;;
76826;SDS011;65788;52.284;20.890;2023-04-24T13:30:17;7.10;;;4.30;;
76826;SDS011;65788;52.284;20.890;2023-04-24T13:32:45;8.20;;;4.00;;
76826;SDS011;65788;52.284;20.890;2023-04-24T13:35:12;4.70;;;3.50;;
76826;SDS011;65788;52.284;20.890;2023-04-24T13:37:39;6.30;;;3.80;;
76826;SDS011;65788;52.284;20.890;2023-04-24T13:40:06;6.70;;;3.70;;
76826;SDS011;65788;52.284;20.890;2023-04-24T13:42:34;7.10;;;4.20;;
76826;SDS011;65788;52.284;20.890;2023-04-24T13:45:01;5.30;;;3.50;;
76826;SDS011;65788;52.284;20.890;2023-04-24T13:47:28;6.10;;;4.00;;
76826;SDS011;65788;52.284;20.890;2023-04-24T13:49:55;5.40;;;4.20;;
76826;SDS011;65788;52.284;20.890;2023-04-24T13:52:22;6.50;;;3.80;;
76826;SDS011;65788;52.284;20.890;2023-04-24T13:54:49;7.90;;;4.40;;
76826;SDS011;65788;52.284;20.890;2023-04-24T13:57:16;6.80;;;3.80;;
76826;SDS011;65788;52.284;20.890;2023-04-24T13:59:43;6.50;;;3.60;;
76826;SDS011;65788;52.284;20.890;2023-04-24T14:02:10;4.90;;;3.40;;
76826;SDS011;65788;52.284;20.890;2023-04-24T14:04:37;6.50;;;3.30;;
76826;SDS011;65788;52.284;20.890;2023-04-24T14:07:03;5.30;;;3.50;;
76826;SDS011;65788;52.284;20.890;2023-04-24T14:09:30;5.10;;;3.30;;
76826;SDS011;65788;52.284;20.890;2023-04-24T14:11:57;4.80;;;3.80;;
76826;SDS011;65788;52.284;20.890;2023-04-24T14:14:23;5.50;;;3.60;;
76826;SDS011;65788;52.284;20.890;2023-04-24T14:16:50;4.50;;;3.40;;
76826;SDS011;65788;52.284;20.890;2023-04-24T14:19:17;7.10;;;3.80;;
76826;SDS011;65788;52.284;20.890;2023-04-24T14:21:44;5.70;;;3.60;;
76826;SDS011;65788;52.284;20.890;2023-04-24T14:24:11;5.30;;;3.60;;
76826;SDS011;65788;52.284;20.890;2023-04-24T14:26:38;5.00;;;3.90;;
76826;SDS011;65788;52.284;20.890;2023-04-24T14:29:05;5.40;;;3.50;;
76826;SDS011;65788;52.284;20.890;2023-04-24T14:31:32;5.20;;;3.60;;
76826;SDS011;65788;52.284;20.890;2023-04-24T14:33:59;6.10;;;3.40;;
76826;SDS011;65788;52.284;20.890;2023-04-24T14:36:26;5.30;;;3.70;;
76826;SDS011;65788;52.284;20.890;2023-04-24T14:38:53;5.70;;;3.70;;
76826;SDS011;65788;52.284;20.890;2023-04-24T14:41:20;5.80;;;3.60;;
76826;SDS011;65788;52.284;20.890;2023-04-24T14:43:47;5.10;;;3.50;;
76826;SDS011;65788;52.284;20.890;2023-04-24T14:46:13;4.60;;;3.40;;
76826;SDS011;65788;52.284;20.890;2023-04-24T14:48:41;5.20;;;3.70;;
76826;SDS011;65788;52.284;20.890;2023-04-24T14:51:08;5.50;;;3.60;;
76826;SDS011;65788;52.284;20.890;2023-04-24T14:53:34;5.60;;;3.80;;
76826;SDS011;65788;52.284;20.890;2023-04-24T14:56:01;6.80;;;3.60;;